sensor_id;sensor_type;location;lat;lon;timestamp;temperature;humidity
4406;DHT22;2216;53.806;11.598;2023-02-01T00:01:54;5.30;83.20
4406;DHT22;2216;53.806;11.598;2023-02-01T00:04:21;5.30;82.90
4406;DHT22;2216;53.806;11.598;2023-02-01T00:06:47;5.30;82.90
4406;DHT22;2216;53.806;11.598;2023-02-01T00:09:13;5.30;82.90
4406;DHT22;2216;53.806;11.598;2023-02-01T00:11:39;5.20;82.90
4406;DHT22;2216;53.806;11.598;2023-02-01T00:14:05;5.20;82.70
4406;DHT22;2216;53.806;11.598;2023-02-01T00:16:31;5.20;82.70
4406;DHT22;2216;53.806;11.598;2023-02-01T00:19:06;5.20;82.80
4406;DHT22;2216;53.806;11.598;2023-02-01T00:21:35;5.10;82.70
4406;DHT22;2216;53.806;11.598;2023-02-01T00:24:01;5.10;82.90
4406;DHT22;2216;53.806;11.598;2023-02-01T00:26:38;5.00;82.70
4406;DHT22;2216;53.806;11.598;2023-02-01T00:29:16;5.00;82.60
4406;DHT22;2216;53.806;11.598;2023-02-01T00:31:44;5.00;82.70
4406;DHT22;2216;53.806;11.598;2023-02-01T00:34:15;5.10;82.70
4406;DHT22;2216;53.806;11.598;2023-02-01T00:36:41;4.90;82.60
4406;DHT22;2216;53.806;11.598;2023-02-01T00:39:08;4.80;82.60
4406;DHT22;2216;53.806;11.598;2023-02-01T00:41:34;4.80;82.60
4406;DHT22;2216;53.806;11.598;2023-02-01T00:43:59;4.90;82.70
4406;DHT22;2216;53.806;11.598;2023-02-01T00:46:26;4.80;82.70
4406;DHT22;2216;53.806;11.598;2023-02-01T00:48:52;4.80;82.80
4406;DHT22;2216;53.806;11.598;2023-02-01T00:51:20;4.80;82.90
4406;DHT22;2216;53.806;11.598;2023-02-01T00:53:47;4.70;82.80
4406;DHT22;2216;53.806;11.598;2023-02-01T00:56:13;4.70;82.90
4406;DHT22;2216;53.806;11.598;2023-02-01T00:58:39;4.70;83.00
4406;DHT22;2216;53.806;11.598;2023-02-01T01:01:10;4.80;83.20
4406;DHT22;2216;53.806;11.598;2023-02-01T01:03:40;4.80;83.40
4406;DHT22;2216;53.806;11.598;2023-02-01T01:06:11;4.80;83.40
4406;DHT22;2216;53.806;11.598;2023-02-01T01:08:42;4.80;83.40
4406;DHT22;2216;53.806;11.598;2023-02-01T01:11:13;4.80;83.40
4406;DHT22;2216;53.806;11.598;2023-02-01T01:13:41;4.90;83.50
4406;DHT22;2216;53.806;11.598;2023-02-01T01:16:08;4.90;83.50
4406;DHT22;2216;53.806;11.598;2023-02-01T01:18:35;4.90;83.60
4406;DHT22;2216;53.806;11.598;2023-02-01T01:21:06;5.00;83.30
4406;DHT22;2216;53.806;11.598;2023-02-01T01:23:34;4.90;83.10
4406;DHT22;2216;53.806;11.598;2023-02-01T01:26:05;4.90;83.10
4406;DHT22;2216;53.806;11.598;2023-02-01T01:28:34;4.90;83.00
4406;DHT22;2216;53.806;11.598;2023-02-01T01:31:01;4.90;82.90
4406;DHT22;2216;53.806;11.598;2023-02-01T01:33:26;4.90;83.00
4406;DHT22;2216;53.806;11.598;2023-02-01T01:35:52;4.90;83.00
4406;DHT22;2216;53.806;11.598;2023-02-01T01:38:18;4.80;83.00
4406;DHT22;2216;53.806;11.598;2023-02-01T01:40:47;4.90;83.00
4406;DHT22;2216;53.806;11.598;2023-02-01T01:43:17;4.80;83.00
4406;DHT22;2216;53.806;11.598;2023-02-01T01:45:48;4.80;82.90
4406;DHT22;2216;53.806;11.598;2023-02-01T01:48:27;4.70;82.80
4406;DHT22;2216;53.806;11.598;2023-02-01T01:51:00;4.70;82.90
4406;DHT22;2216;53.806;11.598;2023-02-01T01:53:32;4.70;82.90
4406;DHT22;2216;53.806;11.598;2023-02-01T01:56:00;4.70;83.00
4406;DHT22;2216;53.806;11.598;2023-02-01T01:58:27;4.70;83.00
4406;DHT22;2216;53.806;11.598;2023-02-01T02:00:54;4.70;83.00
4406;DHT22;2216;53.806;11.598;2023-02-01T02:03:27;4.70;83.80
4406;DHT22;2216;53.806;11.598;2023-02-01T02:06:01;4.70;83.10
4406;DHT22;2216;53.806;11.598;2023-02-01T02:08:28;4.70;83.10
4406;DHT22;2216;53.806;11.598;2023-02-01T02:10:54;4.70;83.20
4406;DHT22;2216;53.806;11.598;2023-02-01T02:13:35;4.70;83.20
4406;DHT22;2216;53.806;11.598;2023-02-01T02:37:25;4.80;83.30
4406;DHT22;2216;53.806;11.598;2023-02-01T02:40:16;4.80;83.30
4406;DHT22;2216;53.806;11.598;2023-02-01T02:43:03;4.90;83.30
4406;DHT22;2216;53.806;11.598;2023-02-01T02:46:15;4.80;83.20
4406;DHT22;2216;53.806;11.598;2023-02-01T02:49:12;4.80;83.20
4406;DHT22;2216;53.806;11.598;2023-02-01T02:51:45;4.80;83.20
4406;DHT22;2216;53.806;11.598;2023-02-01T02:54:46;4.90;83.30
4406;DHT22;2216;53.806;11.598;2023-02-01T02:57:38;4.90;83.30
4406;DHT22;2216;53.806;11.598;2023-02-01T03:00:24;4.90;83.30
4406;DHT22;2216;53.806;11.598;2023-02-01T03:03:11;4.90;83.20
4406;DHT22;2216;53.806;11.598;2023-02-01T03:05:56;4.80;83.20
4406;DHT22;2216;53.806;11.598;2023-02-01T03:08:24;4.90;83.30
4406;DHT22;2216;53.806;11.598;2023-02-01T03:11:07;4.90;83.30
4406;DHT22;2216;53.806;11.598;2023-02-01T03:16:32;4.90;83.50
4406;DHT22;2216;53.806;11.598;2023-02-01T03:19:23;4.90;83.40
4406;DHT22;2216;53.806;11.598;2023-02-01T03:21:55;5.00;83.30
4406;DHT22;2216;53.806;11.598;2023-02-01T03:24:36;5.00;83.30
4406;DHT22;2216;53.806;11.598;2023-02-01T03:27:29;5.00;83.30
4406;DHT22;2216;53.806;11.598;2023-02-01T03:32:55;5.00;83.30
4406;DHT22;2216;53.806;11.598;2023-02-01T03:41:38;5.00;83.40
4406;DHT22;2216;53.806;11.598;2023-02-01T03:44:16;5.10;84.20
4406;DHT22;2216;53.806;11.598;2023-02-01T03:46:52;5.10;83.60
4406;DHT22;2216;53.806;11.598;2023-02-01T03:49:28;5.10;83.60
4406;DHT22;2216;53.806;11.598;2023-02-01T03:51:58;5.20;83.70
4406;DHT22;2216;53.806;11.598;2023-02-01T03:54:25;5.40;83.80
4406;DHT22;2216;53.806;11.598;2023-02-01T03:56:55;5.20;83.60
4406;DHT22;2216;53.806;11.598;2023-02-01T03:59:22;5.20;83.70
4406;DHT22;2216;53.806;11.598;2023-02-01T04:01:49;5.30;83.70
4406;DHT22;2216;53.806;11.598;2023-02-01T04:04:15;5.30;83.60
4406;DHT22;2216;53.806;11.598;2023-02-01T04:06:46;5.30;83.60
4406;DHT22;2216;53.806;11.598;2023-02-01T04:09:12;5.40;83.70
4406;DHT22;2216;53.806;11.598;2023-02-01T04:11:38;5.40;83.60
4406;DHT22;2216;53.806;11.598;2023-02-01T04:14:04;5.40;83.60
4406;DHT22;2216;53.806;11.598;2023-02-01T04:16:31;5.40;83.60
4406;DHT22;2216;53.806;11.598;2023-02-01T04:18:57;5.50;83.60
4406;DHT22;2216;53.806;11.598;2023-02-01T04:21:26;5.50;83.60
4406;DHT22;2216;53.806;11.598;2023-02-01T04:23:53;5.50;83.60
4406;DHT22;2216;53.806;11.598;2023-02-01T04:26:19;5.50;83.50
4406;DHT22;2216;53.806;11.598;2023-02-01T04:28:46;5.50;83.50
4406;DHT22;2216;53.806;11.598;2023-02-01T04:31:15;5.60;83.60
4406;DHT22;2216;53.806;11.598;2023-02-01T04:33:42;5.60;83.50
4406;DHT22;2216;53.806;11.598;2023-02-01T04:36:09;5.60;83.70
4406;DHT22;2216;53.806;11.598;2023-02-01T04:38:35;5.70;83.50
4406;DHT22;2216;53.806;11.598;2023-02-01T04:41:01;5.60;83.50
4406;DHT22;2216;53.806;11.598;2023-02-01T04:43:26;5.70;83.40
4406;DHT22;2216;53.806;11.598;2023-02-01T04:45:52;5.70;83.40
4406;DHT22;2216;53.806;11.598;2023-02-01T04:48:19;5.70;83.30
4406;DHT22;2216;53.806;11.598;2023-02-01T04:50:46;5.70;83.30
4406;DHT22;2216;53.806;11.598;2023-02-01T04:53:17;5.70;83.20
4406;DHT22;2216;53.806;11.598;2023-02-01T04:55:43;5.70;83.20
4406;DHT22;2216;53.806;11.598;2023-02-01T04:58:10;5.70;83.10
4406;DHT22;2216;53.806;11.598;2023-02-01T05:00:36;5.70;83.80
4406;DHT22;2216;53.806;11.598;2023-02-01T05:03:03;5.70;83.00
4406;DHT22;2216;53.806;11.598;2023-02-01T05:05:29;5.70;83.00
4406;DHT22;2216;53.806;11.598;2023-02-01T05:07:54;5.60;82.90
4406;DHT22;2216;53.806;11.598;2023-02-01T05:10:21;5.60;82.90
4406;DHT22;2216;53.806;11.598;2023-02-01T05:12:47;5.60;82.90
4406;DHT22;2216;53.806;11.598;2023-02-01T05:15:31;5.60;82.90
4406;DHT22;2216;53.806;11.598;2023-02-01T05:17:57;5.60;82.80
4406;DHT22;2216;53.806;11.598;2023-02-01T05:20:24;5.50;82.80
4406;DHT22;2216;53.806;11.598;2023-02-01T05:22:50;5.50;82.80
4406;DHT22;2216;53.806;11.598;2023-02-01T05:25:15;5.50;82.80
4406;DHT22;2216;53.806;11.598;2023-02-01T05:27:41;5.40;82.70
4406;DHT22;2216;53.806;11.598;2023-02-01T05:30:08;5.40;82.60
4406;DHT22;2216;53.806;11.598;2023-02-01T05:32:34;5.30;82.60
4406;DHT22;2216;53.806;11.598;2023-02-01T05:35:00;5.30;82.60
4406;DHT22;2216;53.806;11.598;2023-02-01T05:37:25;5.20;82.60
4406;DHT22;2216;53.806;11.598;2023-02-01T05:39:51;5.10;82.50
4406;DHT22;2216;53.806;11.598;2023-02-01T05:42:17;5.10;82.60
4406;DHT22;2216;53.806;11.598;2023-02-01T05:44:43;5.10;82.60
4406;DHT22;2216;53.806;11.598;2023-02-01T05:47:08;5.00;82.60
4406;DHT22;2216;53.806;11.598;2023-02-01T05:49:34;5.00;82.60
4406;DHT22;2216;53.806;11.598;2023-02-01T05:52:00;4.90;82.60
4406;DHT22;2216;53.806;11.598;2023-02-01T05:54:26;4.90;82.60
4406;DHT22;2216;53.806;11.598;2023-02-01T05:56:52;4.90;82.80
4406;DHT22;2216;53.806;11.598;2023-02-01T05:59:18;4.80;82.60
4406;DHT22;2216;53.806;11.598;2023-02-01T06:01:43;4.80;82.60
4406;DHT22;2216;53.806;11.598;2023-02-01T06:04:09;4.70;82.60
4406;DHT22;2216;53.806;11.598;2023-02-01T06:06:35;4.70;82.60
4406;DHT22;2216;53.806;11.598;2023-02-01T06:09:02;4.70;82.70
4406;DHT22;2216;53.806;11.598;2023-02-01T06:11:27;4.60;82.70
4406;DHT22;2216;53.806;11.598;2023-02-01T06:13:53;4.60;82.60
4406;DHT22;2216;53.806;11.598;2023-02-01T06:16:20;4.60;82.70
4406;DHT22;2216;53.806;11.598;2023-02-01T06:18:47;4.50;82.70
4406;DHT22;2216;53.806;11.598;2023-02-01T06:21:14;4.50;82.70
4406;DHT22;2216;53.806;11.598;2023-02-01T06:23:49;4.50;82.70
4406;DHT22;2216;53.806;11.598;2023-02-01T06:26:16;4.50;82.70
4406;DHT22;2216;53.806;11.598;2023-02-01T06:28:43;4.40;82.70
4406;DHT22;2216;53.806;11.598;2023-02-01T06:31:09;4.40;82.70
4406;DHT22;2216;53.806;11.598;2023-02-01T06:33:36;4.40;82.90
4406;DHT22;2216;53.806;11.598;2023-02-01T06:36:04;4.40;82.80
4406;DHT22;2216;53.806;11.598;2023-02-01T06:38:31;4.40;82.90
4406;DHT22;2216;53.806;11.598;2023-02-01T06:41:00;4.40;82.90
4406;DHT22;2216;53.806;11.598;2023-02-01T06:43:26;4.30;82.80
4406;DHT22;2216;53.806;11.598;2023-02-01T06:45:52;4.30;82.80
4406;DHT22;2216;53.806;11.598;2023-02-01T06:48:18;4.30;83.00
4406;DHT22;2216;53.806;11.598;2023-02-01T06:50:44;4.30;83.00
4406;DHT22;2216;53.806;11.598;2023-02-01T06:53:10;4.30;83.10
4406;DHT22;2216;53.806;11.598;2023-02-01T06:55:36;4.20;83.00
4406;DHT22;2216;53.806;11.598;2023-02-01T06:58:02;4.20;83.00
4406;DHT22;2216;53.806;11.598;2023-02-01T07:00:28;4.20;83.00
4406;DHT22;2216;53.806;11.598;2023-02-01T07:02:54;4.20;83.00
4406;DHT22;2216;53.806;11.598;2023-02-01T07:05:21;4.30;83.10
4406;DHT22;2216;53.806;11.598;2023-02-01T07:07:46;4.20;83.00
4406;DHT22;2216;53.806;11.598;2023-02-01T07:10:12;4.20;83.00
4406;DHT22;2216;53.806;11.598;2023-02-01T07:12:38;4.40;83.20
4406;DHT22;2216;53.806;11.598;2023-02-01T07:15:05;4.20;83.00
4406;DHT22;2216;53.806;11.598;2023-02-01T07:17:31;4.20;83.00
4406;DHT22;2216;53.806;11.598;2023-02-01T07:19:57;4.20;82.90
4406;DHT22;2216;53.806;11.598;2023-02-01T07:22:25;4.20;82.90
4406;DHT22;2216;53.806;11.598;2023-02-01T07:24:51;4.30;83.00
4406;DHT22;2216;53.806;11.598;2023-02-01T07:27:17;4.10;82.90
4406;DHT22;2216;53.806;11.598;2023-02-01T07:29:42;4.10;83.00
4406;DHT22;2216;53.806;11.598;2023-02-01T07:32:08;4.10;83.00
4406;DHT22;2216;53.806;11.598;2023-02-01T07:34:34;4.10;83.00
4406;DHT22;2216;53.806;11.598;2023-02-01T07:37:00;4.20;83.20
4406;DHT22;2216;53.806;11.598;2023-02-01T07:39:25;4.10;83.20
4406;DHT22;2216;53.806;11.598;2023-02-01T07:41:53;4.10;83.20
4406;DHT22;2216;53.806;11.598;2023-02-01T07:44:19;4.40;83.60
4406;DHT22;2216;53.806;11.598;2023-02-01T07:46:48;4.20;83.60
4406;DHT22;2216;53.806;11.598;2023-02-01T07:49:14;4.10;83.60
4406;DHT22;2216;53.806;11.598;2023-02-01T07:51:40;4.30;83.60
4406;DHT22;2216;53.806;11.598;2023-02-01T07:54:06;4.20;83.70
4406;DHT22;2216;53.806;11.598;2023-02-01T07:56:31;4.30;83.70
4406;DHT22;2216;53.806;11.598;2023-02-01T07:58:57;4.30;83.80
4406;DHT22;2216;53.806;11.598;2023-02-01T08:01:26;4.40;83.90
4406;DHT22;2216;53.806;11.598;2023-02-01T08:03:53;4.40;84.00
4406;DHT22;2216;53.806;11.598;2023-02-01T08:06:21;4.50;84.00
4406;DHT22;2216;53.806;11.598;2023-02-01T08:08:48;4.50;84.00
4406;DHT22;2216;53.806;11.598;2023-02-01T08:11:15;4.50;84.10
4406;DHT22;2216;53.806;11.598;2023-02-01T08:13:42;4.80;84.20
4406;DHT22;2216;53.806;11.598;2023-02-01T08:16:09;4.60;84.20
4406;DHT22;2216;53.806;11.598;2023-02-01T08:18:37;4.70;84.20
4406;DHT22;2216;53.806;11.598;2023-02-01T08:21:11;4.70;84.10
4406;DHT22;2216;53.806;11.598;2023-02-01T08:23:40;4.80;84.20
4406;DHT22;2216;53.806;11.598;2023-02-01T08:26:18;4.80;84.10
4406;DHT22;2216;53.806;11.598;2023-02-01T08:28:49;4.80;84.00
4406;DHT22;2216;53.806;11.598;2023-02-01T08:31:24;4.90;84.00
4406;DHT22;2216;53.806;11.598;2023-02-01T08:33:54;4.90;84.00
4406;DHT22;2216;53.806;11.598;2023-02-01T08:36:22;4.90;84.00
4406;DHT22;2216;53.806;11.598;2023-02-01T08:38:49;5.00;84.10
4406;DHT22;2216;53.806;11.598;2023-02-01T08:41:17;5.00;84.00
4406;DHT22;2216;53.806;11.598;2023-02-01T08:43:44;5.00;84.10
4406;DHT22;2216;53.806;11.598;2023-02-01T08:46:11;4.80;83.80
4406;DHT22;2216;53.806;11.598;2023-02-01T08:48:37;5.00;83.90
4406;DHT22;2216;53.806;11.598;2023-02-01T08:51:05;5.10;83.90
4406;DHT22;2216;53.806;11.598;2023-02-01T08:53:32;5.10;83.90
4406;DHT22;2216;53.806;11.598;2023-02-01T08:55:58;5.10;83.90
4406;DHT22;2216;53.806;11.598;2023-02-01T08:58:24;5.10;83.80
4406;DHT22;2216;53.806;11.598;2023-02-01T09:00:50;5.20;83.90
4406;DHT22;2216;53.806;11.598;2023-02-01T09:03:16;5.40;84.10
4406;DHT22;2216;53.806;11.598;2023-02-01T09:05:41;5.20;84.10
4406;DHT22;2216;53.806;11.598;2023-02-01T09:08:07;5.30;84.10
4406;DHT22;2216;53.806;11.598;2023-02-01T09:10:34;5.20;84.30
4406;DHT22;2216;53.806;11.598;2023-02-01T09:13:01;5.40;84.30
4406;DHT22;2216;53.806;11.598;2023-02-01T09:15:27;5.30;84.20
4406;DHT22;2216;53.806;11.598;2023-02-01T09:17:52;5.50;84.40
4406;DHT22;2216;53.806;11.598;2023-02-01T09:20:18;5.50;84.40
4406;DHT22;2216;53.806;11.598;2023-02-01T09:22:45;5.50;84.60
4406;DHT22;2216;53.806;11.598;2023-02-01T09:25:11;5.70;84.70
4406;DHT22;2216;53.806;11.598;2023-02-01T09:27:37;5.70;84.90
4406;DHT22;2216;53.806;11.598;2023-02-01T09:30:03;5.80;84.70
4406;DHT22;2216;53.806;11.598;2023-02-01T09:32:30;5.80;84.40
4406;DHT22;2216;53.806;11.598;2023-02-01T09:34:55;5.80;84.20
4406;DHT22;2216;53.806;11.598;2023-02-01T09:37:21;5.80;84.00
4406;DHT22;2216;53.806;11.598;2023-02-01T09:39:47;5.80;83.90
4406;DHT22;2216;53.806;11.598;2023-02-01T09:42:42;5.80;83.80
4406;DHT22;2216;53.806;11.598;2023-02-01T09:48:36;5.80;83.80
4406;DHT22;2216;53.806;11.598;2023-02-01T09:51:09;5.90;84.00
4406;DHT22;2216;53.806;11.598;2023-02-01T09:53:42;5.90;84.20
4406;DHT22;2216;53.806;11.598;2023-02-01T09:56:23;6.00;84.30
4406;DHT22;2216;53.806;11.598;2023-02-01T09:59:04;6.00;85.00
4406;DHT22;2216;53.806;11.598;2023-02-01T10:01:37;6.10;84.40
4406;DHT22;2216;53.806;11.598;2023-02-01T10:04:07;6.00;84.60
4406;DHT22;2216;53.806;11.598;2023-02-01T10:06:41;6.20;84.70
4406;DHT22;2216;53.806;11.598;2023-02-01T10:12:47;6.40;84.90
4406;DHT22;2216;53.806;11.598;2023-02-01T10:15:35;6.50;84.50
4406;DHT22;2216;53.806;11.598;2023-02-01T10:18:40;6.50;84.10
4406;DHT22;2216;53.806;11.598;2023-02-01T10:26:56;6.30;83.10
4406;DHT22;2216;53.806;11.598;2023-02-01T10:29:31;6.30;83.00
4406;DHT22;2216;53.806;11.598;2023-02-01T10:32:01;6.30;82.80
4406;DHT22;2216;53.806;11.598;2023-02-01T10:34:31;6.20;82.90
4406;DHT22;2216;53.806;11.598;2023-02-01T10:37:01;6.20;82.90
4406;DHT22;2216;53.806;11.598;2023-02-01T10:39:35;6.10;82.90
4406;DHT22;2216;53.806;11.598;2023-02-01T10:42:02;6.10;83.30
4406;DHT22;2216;53.806;11.598;2023-02-01T10:44:30;6.20;83.80
4406;DHT22;2216;53.806;11.598;2023-02-01T10:46:56;6.30;84.20
4406;DHT22;2216;53.806;11.598;2023-02-01T10:49:38;6.30;84.60
4406;DHT22;2216;53.806;11.598;2023-02-01T10:52:17;6.40;84.70
4406;DHT22;2216;53.806;11.598;2023-02-01T10:54:46;6.70;84.80
4406;DHT22;2216;53.806;11.598;2023-02-01T10:57:24;6.60;84.70
4406;DHT22;2216;53.806;11.598;2023-02-01T10:59:53;6.70;84.60
4406;DHT22;2216;53.806;11.598;2023-02-01T11:02:29;6.80;84.50
4406;DHT22;2216;53.806;11.598;2023-02-01T11:05:05;6.80;84.30
4406;DHT22;2216;53.806;11.598;2023-02-01T11:07:36;6.90;84.20
4406;DHT22;2216;53.806;11.598;2023-02-01T11:10:02;7.00;84.30
4406;DHT22;2216;53.806;11.598;2023-02-01T11:12:36;7.10;84.50
4406;DHT22;2216;53.806;11.598;2023-02-01T11:17:43;7.30;85.00
4406;DHT22;2216;53.806;11.598;2023-02-01T11:20:16;7.60;85.10
4406;DHT22;2216;53.806;11.598;2023-02-01T11:22:48;7.50;85.00
4406;DHT22;2216;53.806;11.598;2023-02-01T11:25:18;7.60;84.80
4406;DHT22;2216;53.806;11.598;2023-02-01T11:27:44;7.70;84.80
4406;DHT22;2216;53.806;11.598;2023-02-01T11:30:16;7.90;84.90
4406;DHT22;2216;53.806;11.598;2023-02-01T11:32:48;8.00;84.60
4406;DHT22;2216;53.806;11.598;2023-02-01T11:35:20;8.00;84.70
4406;DHT22;2216;53.806;11.598;2023-02-01T11:37:53;8.10;84.80
4406;DHT22;2216;53.806;11.598;2023-02-01T11:40:34;8.20;84.70
4406;DHT22;2216;53.806;11.598;2023-02-01T11:46:02;8.40;84.30
4406;DHT22;2216;53.806;11.598;2023-02-01T11:48:41;8.40;83.80
4406;DHT22;2216;53.806;11.598;2023-02-01T11:54:41;8.40;83.10
4406;DHT22;2216;53.806;11.598;2023-02-01T12:03:04;8.20;82.80
4406;DHT22;2216;53.806;11.598;2023-02-01T12:05:56;8.20;82.60
4406;DHT22;2216;53.806;11.598;2023-02-01T12:08:51;8.10;82.60
4406;DHT22;2216;53.806;11.598;2023-02-01T12:17:33;7.80;82.00
4406;DHT22;2216;53.806;11.598;2023-02-01T12:23:55;7.50;81.50
4406;DHT22;2216;53.806;11.598;2023-02-01T12:31:57;7.10;81.50
4406;DHT22;2216;53.806;11.598;2023-02-01T12:34:39;6.80;81.60
4406;DHT22;2216;53.806;11.598;2023-02-01T12:37:31;6.80;81.80
4406;DHT22;2216;53.806;11.598;2023-02-01T12:42:41;6.80;82.10
4406;DHT22;2216;53.806;11.598;2023-02-01T12:45:40;6.70;82.30
4406;DHT22;2216;53.806;11.598;2023-02-01T12:48:25;6.60;82.40
4406;DHT22;2216;53.806;11.598;2023-02-01T12:51:06;6.60;82.50
4406;DHT22;2216;53.806;11.598;2023-02-01T12:56:32;6.60;82.80
4406;DHT22;2216;53.806;11.598;2023-02-01T12:59:08;6.50;82.90
4406;DHT22;2216;53.806;11.598;2023-02-01T13:01:54;6.50;83.00
4406;DHT22;2216;53.806;11.598;2023-02-01T13:07:21;6.50;83.00
4406;DHT22;2216;53.806;11.598;2023-02-01T13:09:53;6.50;83.10
4406;DHT22;2216;53.806;11.598;2023-02-01T13:12:31;6.50;83.10
4406;DHT22;2216;53.806;11.598;2023-02-01T13:15:16;6.50;83.10
4406;DHT22;2216;53.806;11.598;2023-02-01T13:17:46;6.50;83.00
4406;DHT22;2216;53.806;11.598;2023-02-01T13:20:21;6.50;83.00
4406;DHT22;2216;53.806;11.598;2023-02-01T13:22:57;6.40;82.90
4406;DHT22;2216;53.806;11.598;2023-02-01T13:25:47;6.30;82.70
4406;DHT22;2216;53.806;11.598;2023-02-01T13:34:03;6.20;82.50
4406;DHT22;2216;53.806;11.598;2023-02-01T13:42:51;5.80;81.80
4406;DHT22;2216;53.806;11.598;2023-02-01T13:45:31;5.70;81.60
4406;DHT22;2216;53.806;11.598;2023-02-01T13:48:03;5.50;81.60
4406;DHT22;2216;53.806;11.598;2023-02-01T13:50:35;5.40;81.60
4406;DHT22;2216;53.806;11.598;2023-02-01T13:53:28;5.30;81.70
4406;DHT22;2216;53.806;11.598;2023-02-01T13:55:59;5.20;81.90
4406;DHT22;2216;53.806;11.598;2023-02-01T13:58:38;5.10;82.00
4406;DHT22;2216;53.806;11.598;2023-02-01T14:19:22;4.90;83.00
4406;DHT22;2216;53.806;11.598;2023-02-01T14:24:51;5.00;83.40
4406;DHT22;2216;53.806;11.598;2023-02-01T14:27:28;5.00;83.40
4406;DHT22;2216;53.806;11.598;2023-02-01T14:30:02;5.00;83.40
4406;DHT22;2216;53.806;11.598;2023-02-01T14:32:35;5.00;83.50
4406;DHT22;2216;53.806;11.598;2023-02-01T14:35:07;5.20;83.60
4406;DHT22;2216;53.806;11.598;2023-02-01T14:37:43;5.00;83.60
4406;DHT22;2216;53.806;11.598;2023-02-01T14:55:47;5.20;83.90
4406;DHT22;2216;53.806;11.598;2023-02-01T15:01:06;5.30;83.60
4406;DHT22;2216;53.806;11.598;2023-02-01T15:03:50;5.20;83.50
4406;DHT22;2216;53.806;11.598;2023-02-01T15:09:29;5.20;83.10
4406;DHT22;2216;53.806;11.598;2023-02-01T15:11:59;5.10;83.10
4406;DHT22;2216;53.806;11.598;2023-02-01T15:14:26;5.10;83.10
4406;DHT22;2216;53.806;11.598;2023-02-01T15:16:54;5.10;82.90
4406;DHT22;2216;53.806;11.598;2023-02-01T15:19:25;5.00;82.90
4406;DHT22;2216;53.806;11.598;2023-02-01T15:21:54;4.90;82.80
4406;DHT22;2216;53.806;11.598;2023-02-01T15:24:26;5.00;83.00
4406;DHT22;2216;53.806;11.598;2023-02-01T15:26:54;5.00;82.90
4406;DHT22;2216;53.806;11.598;2023-02-01T15:29:22;4.90;82.90
4406;DHT22;2216;53.806;11.598;2023-02-01T15:31:53;4.90;82.90
4406;DHT22;2216;53.806;11.598;2023-02-01T15:34:20;4.90;83.00
4406;DHT22;2216;53.806;11.598;2023-02-01T15:36:47;4.90;83.00
4406;DHT22;2216;53.806;11.598;2023-02-01T15:39:14;4.80;83.00
4406;DHT22;2216;53.806;11.598;2023-02-01T15:42:10;4.80;83.00
4406;DHT22;2216;53.806;11.598;2023-02-01T15:44:45;4.80;83.10
4406;DHT22;2216;53.806;11.598;2023-02-01T15:47:26;4.80;83.20
4406;DHT22;2216;53.806;11.598;2023-02-01T15:49:55;4.80;83.20
4406;DHT22;2216;53.806;11.598;2023-02-01T15:52:37;4.80;83.20
4406;DHT22;2216;53.806;11.598;2023-02-01T15:55:18;4.80;83.30
4406;DHT22;2216;53.806;11.598;2023-02-01T15:57:47;4.80;83.40
4406;DHT22;2216;53.806;11.598;2023-02-01T16:00:28;4.70;83.30
4406;DHT22;2216;53.806;11.598;2023-02-01T16:02:58;4.80;83.40
4406;DHT22;2216;53.806;11.598;2023-02-01T16:05:40;4.80;83.40
4406;DHT22;2216;53.806;11.598;2023-02-01T16:08:28;4.80;83.50
4406;DHT22;2216;53.806;11.598;2023-02-01T16:11:01;4.80;83.50
4406;DHT22;2216;53.806;11.598;2023-02-01T16:13:48;4.80;83.60
4406;DHT22;2216;53.806;11.598;2023-02-01T16:16:14;4.80;83.60
4406;DHT22;2216;53.806;11.598;2023-02-01T16:18:40;4.80;83.60
4406;DHT22;2216;53.806;11.598;2023-02-01T16:21:06;4.80;83.60
4406;DHT22;2216;53.806;11.598;2023-02-01T16:23:36;4.90;83.70
4406;DHT22;2216;53.806;11.598;2023-02-01T16:26:03;4.80;84.40
4406;DHT22;2216;53.806;11.598;2023-02-01T16:28:29;4.80;83.60
4406;DHT22;2216;53.806;11.598;2023-02-01T16:30:55;4.80;83.50
4406;DHT22;2216;53.806;11.598;2023-02-01T16:33:21;4.80;83.60
4406;DHT22;2216;53.806;11.598;2023-02-01T16:35:48;4.70;83.50
4406;DHT22;2216;53.806;11.598;2023-02-01T16:38:17;4.90;83.70
4406;DHT22;2216;53.806;11.598;2023-02-01T16:40:47;4.80;83.70
4406;DHT22;2216;53.806;11.598;2023-02-01T16:43:15;4.80;83.70
4406;DHT22;2216;53.806;11.598;2023-02-01T16:45:43;4.90;83.70
4406;DHT22;2216;53.806;11.598;2023-02-01T16:48:22;4.90;83.70
4406;DHT22;2216;53.806;11.598;2023-02-01T16:51:07;4.90;83.70
4406;DHT22;2216;53.806;11.598;2023-02-01T16:53:35;4.90;83.60
4406;DHT22;2216;53.806;11.598;2023-02-01T16:56:01;5.00;83.70
4406;DHT22;2216;53.806;11.598;2023-02-01T16:58:28;4.90;83.60
4406;DHT22;2216;53.806;11.598;2023-02-01T17:00:53;5.00;83.70
4406;DHT22;2216;53.806;11.598;2023-02-01T17:03:20;5.00;83.60
4406;DHT22;2216;53.806;11.598;2023-02-01T17:05:55;5.00;83.60
4406;DHT22;2216;53.806;11.598;2023-02-01T17:08:28;4.90;83.50
4406;DHT22;2216;53.806;11.598;2023-02-01T17:10:56;4.90;83.40
4406;DHT22;2216;53.806;11.598;2023-02-01T17:13:22;4.90;83.30
4406;DHT22;2216;53.806;11.598;2023-02-01T17:15:53;4.90;83.40
4406;DHT22;2216;53.806;11.598;2023-02-01T17:18:21;4.90;83.40
4406;DHT22;2216;53.806;11.598;2023-02-01T17:20:47;4.90;83.40
4406;DHT22;2216;53.806;11.598;2023-02-01T17:23:15;4.90;83.50
4406;DHT22;2216;53.806;11.598;2023-02-01T17:25:41;4.90;83.70
4406;DHT22;2216;53.806;11.598;2023-02-01T17:28:08;4.90;83.60
4406;DHT22;2216;53.806;11.598;2023-02-01T17:30:34;4.90;83.60
4406;DHT22;2216;53.806;11.598;2023-02-01T17:32:59;4.80;83.70
4406;DHT22;2216;53.806;11.598;2023-02-01T17:35:27;4.90;83.60
4406;DHT22;2216;53.806;11.598;2023-02-01T17:37:54;5.20;83.80
4406;DHT22;2216;53.806;11.598;2023-02-01T17:40:20;4.90;83.70
4406;DHT22;2216;53.806;11.598;2023-02-01T17:42:45;5.00;83.80
4406;DHT22;2216;53.806;11.598;2023-02-01T17:45:23;5.00;83.70
4406;DHT22;2216;53.806;11.598;2023-02-01T17:47:53;5.00;83.70
4406;DHT22;2216;53.806;11.598;2023-02-01T17:50:18;5.00;83.70
4406;DHT22;2216;53.806;11.598;2023-02-01T17:52:44;5.00;83.70
4406;DHT22;2216;53.806;11.598;2023-02-01T17:55:17;5.20;83.90
4406;DHT22;2216;53.806;11.598;2023-02-01T17:57:44;5.00;83.60
4406;DHT22;2216;53.806;11.598;2023-02-01T18:00:10;5.20;83.80
4406;DHT22;2216;53.806;11.598;2023-02-01T18:02:38;5.00;83.70
4406;DHT22;2216;53.806;11.598;2023-02-01T18:05:20;5.00;83.80
4406;DHT22;2216;53.806;11.598;2023-02-01T18:07:48;5.00;83.80
4406;DHT22;2216;53.806;11.598;2023-02-01T18:10:14;5.10;83.80
4406;DHT22;2216;53.806;11.598;2023-02-01T18:12:40;5.10;83.70
4406;DHT22;2216;53.806;11.598;2023-02-01T18:15:15;5.00;83.80
4406;DHT22;2216;53.806;11.598;2023-02-01T18:17:43;5.10;83.80
4406;DHT22;2216;53.806;11.598;2023-02-01T18:20:20;5.10;83.80
4406;DHT22;2216;53.806;11.598;2023-02-01T18:22:47;5.30;84.00
4406;DHT22;2216;53.806;11.598;2023-02-01T18:27:46;5.10;83.90
4406;DHT22;2216;53.806;11.598;2023-02-01T18:30:13;5.10;83.90
4406;DHT22;2216;53.806;11.598;2023-02-01T18:32:40;5.20;83.90
4406;DHT22;2216;53.806;11.598;2023-02-01T18:35:25;5.20;83.90
4406;DHT22;2216;53.806;11.598;2023-02-01T18:37:54;5.20;83.90
4406;DHT22;2216;53.806;11.598;2023-02-01T18:40:29;5.30;83.90
4406;DHT22;2216;53.806;11.598;2023-02-01T18:42:58;5.20;83.80
4406;DHT22;2216;53.806;11.598;2023-02-01T18:48:04;5.30;83.90
4406;DHT22;2216;53.806;11.598;2023-02-01T18:50:33;5.40;83.90